Time;durP1;ratioP1;P1;durP2;ratioP2;P2;SDS_P1;SDS_P2;PMS_P1;PMS_P2;Temp;Humidity;BMP_temperature;BMP_pressure;BME280_temperature;BME280_humidity;BME280_pressure;Samples;Min_cycle;Max_cycle;Signal;HPM_P1;HPM_P2
2022/08/26 00:02:10;;;;;;;24.23;19.90;;;;;;;21.34;100.00;101311.75;5055188;28;20048;-67
2022/08/26 00:04:39;;;;;;;23.33;18.23;;;;;;;21.38;100.00;101315.78;5052070;28;20053;-67
2022/08/26 00:07:09;;;;;;;20.25;18.08;;;;;;;21.46;100.00;101317.69;5051488;28;20053;-65
2022/08/26 00:09:37;;;;;;;26.80;19.02;;;;;;;21.37;100.00;101310.59;5051177;28;20073;-56
2022/08/26 00:12:08;;;;;;;23.75;17.58;;;;;;;21.42;100.00;101311.81;5052680;28;20114;-65
2022/08/26 00:14:39;;;;;;;22.35;17.17;;;;;;;21.38;100.00;101306.94;5052856;28;20055;-57
2022/08/26 00:17:08;;;;;;;22.73;16.25;;;;;;;21.32;100.00;101304.91;5052636;28;20060;-68
2022/08/26 00:19:36;;;;;;;20.80;16.13;;;;;;;21.28;100.00;101310.56;5054677;28;20053;-67
2022/08/26 00:22:05;;;;;;;19.63;15.70;;;;;;;21.29;100.00;101316.75;5053408;28;20140;-65
2022/08/26 00:24:34;;;;;;;21.30;15.40;;;;;;;21.29;100.00;101314.06;5050446;28;20152;-66
2022/08/26 00:27:03;;;;;;;20.98;14.10;;;;;;;21.27;100.00;101308.06;5053713;28;20123;-57
2022/08/26 00:29:33;;;;;;;21.60;14.35;;;;;;;21.19;100.00;101313.38;5054175;28;20124;-55
2022/08/26 00:32:05;;;;;;;25.23;14.05;;;;;;;21.22;100.00;101316.53;5051748;28;20047;-55
2022/08/26 00:34:34;;;;;;;20.95;12.60;;;;;;;21.25;100.00;101320.72;5051919;28;20071;-66
2022/08/26 00:37:03;;;;;;;18.92;12.82;;;;;;;21.30;100.00;101313.06;5051525;28;20053;-66
2022/08/26 00:39:37;;;;;;;19.60;13.13;;;;;;;21.14;100.00;101313.81;5050717;28;20053;-57
2022/08/26 00:42:05;;;;;;;19.10;11.65;;;;;;;21.15;100.00;101314.69;5051838;28;20137;-57
2022/08/26 00:44:36;;;;;;;16.75;11.00;;;;;;;21.21;100.00;101312.19;5052395;28;20048;-64
2022/08/26 00:47:09;;;;;;;17.27;11.35;;;;;;;21.06;100.00;101314.59;5054440;28;20053;-57
2022/08/26 00:49:40;;;;;;;19.42;10.82;;;;;;;21.10;100.00;101307.97;5054749;28;20045;-58
2022/08/26 00:52:12;;;;;;;15.13;9.60;;;;;;;21.12;100.00;101313.16;5054568;28;20049;-56
2022/08/26 00:54:49;;;;;;;15.43;9.32;;;;;;;21.13;100.00;101316.66;5049999;28;20119;-57
2022/08/26 00:57:19;;;;;;;14.77;9.63;;;;;;;21.06;100.00;101314.59;5052258;28;20084;-67
2022/08/26 00:59:57;;;;;;;17.27;8.52;;;;;;;21.18;100.00;101314.34;5049841;28;20053;-57
2022/08/26 01:02:25;;;;;;;14.90;8.18;;;;;;;21.18;100.00;101317.03;5053272;28;20060;-56
2022/08/26 01:04:58;;;;;;;14.35;8.40;;;;;;;21.14;100.00;101321.84;5051551;28;20052;-56
2022/08/26 01:07:28;;;;;;;12.25;7.80;;;;;;;21.05;100.00;101315.63;5051799;28;20064;-58
2022/08/26 01:10:01;;;;;;;13.07;8.02;;;;;;;21.01;100.00;101316.06;5050648;28;20102;-56
2022/08/26 01:12:36;;;;;;;11.75;7.57;;;;;;;21.01;100.00;101316.06;5052366;28;20052;-67
2022/08/26 01:15:10;;;;;;;13.57;7.28;;;;;;;21.00;100.00;101320.59;5050113;28;20131;-60
2022/08/26 01:17:39;;;;;;;13.68;7.20;;;;;;;20.95;100.00;101314.88;5051851;28;20045;-65
2022/08/26 01:20:13;;;;;;;13.75;7.18;;;;;;;20.98;100.00;101319.88;5051149;28;20095;-56
2022/08/26 01:22:50;;;;;;;17.92;7.35;;;;;;;21.01;100.00;101316.06;5051054;28;20048;-66
2022/08/26 01:25:21;;;;;;;12.68;6.85;;;;;;;21.03;100.00;101320.25;5049556;28;20049;-57
2022/08/26 01:27:50;;;;;;;14.82;6.50;;;;;;;21.05;100.00;101318.28;5051851;28;20389;-54
2022/08/26 01:30:19;;;;;;;12.55;6.05;;;;;;;21.08;100.00;101315.28;5053542;28;20053;-65
2022/08/26 01:32:50;;;;;;;13.73;5.82;;;;;;;21.03;100.00;101322.13;5052472;28;20051;-57
2022/08/26 01:35:19;;;;;;;12.88;5.13;;;;;;;21.01;100.00;101310.72;5050905;28;20499;-57
2022/08/26 01:37:53;;;;;;;12.02;5.50;;;;;;;20.99;100.00;101313.56;5050876;28;20466;-66
2022/08/26 01:40:28;;;;;;;13.07;6.22;;;;;;;20.97;100.00;101315.56;5048017;28;20057;-57
2022/08/26 01:42:56;;;;;;;11.30;5.80;;;;;;;20.98;100.00;101311.03;5050883;28;20156;-66
2022/08/26 01:45:28;;;;;;;12.55;5.72;;;;;;;20.98;100.00;101317.22;5050972;28;20076;-66
2022/08/26 01:47:59;;;;;;;11.25;5.45;;;;;;;20.93;100.00;101314.19;5050837;28;20055;-59
2022/08/26 01:50:30;;;;;;;11.10;5.15;;;;;;;20.92;100.00;101321.38;5049217;28;20052;-58
2022/08/26 01:53:04;;;;;;;11.00;5.30;;;;;;;20.94;100.00;101321.19;5050655;28;20045;-58
2022/08/26 01:55:34;;;;;;;12.10;4.88;;;;;;;20.90;100.00;101326.03;5048463;28;20048;-57
2022/08/26 01:58:06;;;;;;;11.93;5.65;;;;;;;20.85;100.00;101327.50;5051640;28;20151;-66
2022/08/26 02:00:36;;;;;;;11.38;4.85;;;;;;;20.85;100.00;101328.34;5053100;28;20492;-55
2022/08/26 02:03:20;;;;;;;11.13;4.95;;;;;;;20.81;100.00;101334.16;5051874;28;20055;-67
2022/08/26 02:05:53;;;;;;;10.25;5.05;;;;;;;20.80;100.00;101335.97;5050386;28;20049;-57
2022/08/26 02:08:26;;;;;;;10.35;4.90;;;;;;;20.83;100.00;101334.81;5050776;28;20053;-68
2022/08/26 02:10:55;;;;;;;11.85;4.75;;;;;;;20.82;100.00;101339.34;5051125;28;20053;-56
2022/08/26 02:13:28;;;;;;;11.65;5.15;;;;;;;20.80;100.00;101329.81;5049889;28;20045;-57
2022/08/26 02:15:57;;;;;;;;;;;;;;;20.76;100.00;101326.59;5050782;28;20048;-57
2022/08/26 02:18:26;;;;;;;11.88;4.80;;;;;;;20.89;100.00;101328.88;5052873;28;19920;-67
2022/08/26 02:20:55;;;;;;;11.10;4.63;;;;;;;20.82;100.00;101327.78;5052406;28;20037;-57
2022/08/26 02:23:25;;;;;;;9.85;4.00;;;;;;;20.75;100.00;101331.09;5052680;28;20041;-58
2022/08/26 02:25:59;;;;;;;9.10;4.32;;;;;;;20.72;100.00;101327.91;5052388;28;20048;-57
2022/08/26 02:28:31;;;;;;;10.85;4.32;;;;;;;20.72;100.00;101328.75;5052299;28;20064;-67
2022/08/26 02:30:59;;;;;;;13.00;4.43;;;;;;;20.73;100.00;101326.91;5050074;28;20041;-66
2022/08/26 02:33:30;;;;;;;11.75;4.18;;;;;;;20.74;100.00;101326.75;5051418;28;20049;-57
2022/08/26 02:35:58;;;;;;;10.10;4.07;;;;;;;20.70;100.00;101328.06;5052445;28;20099;-57
2022/08/26 02:38:28;;;;;;;9.32;3.40;;;;;;;20.70;100.00;101321.88;5052168;28;20049;-59
2022/08/26 02:40:56;;;;;;;11.77;3.72;;;;;;;20.63;100.00;101332.31;5052350;28;20045;-55
2022/08/26 02:43:24;;;;;;;14.85;4.00;;;;;;;20.65;100.00;101322.28;5052720;28;20075;-66
2022/08/26 02:45:58;;;;;;;8.52;3.60;;;;;;;20.69;100.00;101328.22;5051114;28;20070;-57
2022/08/26 02:48:30;;;;;;;10.20;3.47;;;;;;;20.68;100.00;101330.06;5052384;28;20091;-56
2022/08/26 02:50:59;;;;;;;11.43;3.45;;;;;;;20.81;100.00;101335.00;5052551;28;20048;-56
2022/08/26 02:53:29;;;;;;;9.57;3.70;;;;;;;20.69;100.00;101337.06;5049402;28;20044;-65
2022/08/26 02:55:58;;;;;;;8.50;3.22;;;;;;;20.72;100.00;101334.09;5047874;28;20147;-66
2022/08/26 02:58:26;;;;;;;10.63;3.55;;;;;;;20.69;100.00;101342.41;5052149;28;20045;-57
2022/08/26 03:00:54;;;;;;;11.18;3.88;;;;;;;20.67;100.00;101339.03;5051855;28;20504;-66
2022/08/26 03:03:22;;;;;;;11.13;3.42;;;;;;;20.61;100.00;101336.97;5052125;28;20049;-57
2022/08/26 03:05:51;;;;;;;12.68;3.80;;;;;;;20.60;100.00;101337.94;5051557;28;20052;-67
2022/08/26 03:08:19;;;;;;;11.00;3.10;;;;;;;20.63;100.00;101329.66;5048438;28;20820;-66
2022/08/26 03:10:49;;;;;;;10.70;3.28;;;;;;;20.65;100.00;101324.97;5047787;28;20059;-66
2022/08/26 03:13:18;;;;;;;10.38;2.88;;;;;;;20.68;100.00;101322.03;5049401;28;20132;-67
2022/08/26 03:15:46;;;;;;;8.45;2.85;;;;;;;20.64;100.00;101319.78;5047928;28;20053;-66
2022/08/26 03:18:15;;;;;;;10.75;3.05;;;;;;;20.60;100.00;101324.59;5049185;28;20072;-66
2022/08/26 03:20:43;;;;;;;8.63;2.90;;;;;;;20.64;100.00;101323.28;5049087;28;20057;-66
2022/08/26 03:23:11;;;;;;;9.00;2.58;;;;;;;20.59;100.00;101322.94;5049386;28;20048;-67
2022/08/26 03:25:39;;;;;;;10.02;3.15;;;;;;;20.59;100.00;101325.59;5047810;28;20509;-57
2022/08/26 03:28:09;;;;;;;10.23;2.55;;;;;;;20.52;100.00;101320.03;5049136;28;20048;-66
2022/08/26 03:30:39;;;;;;;10.57;2.78;;;;;;;20.46;100.00;101334.00;5049772;28;20049;-57
2022/08/26 03:33:13;;;;;;;9.65;2.85;;;;;;;20.52;100.00;101335.19;5051304;28;20199;-66
2022/08/26 03:35:44;;;;;;;10.50;2.80;;;;;;;20.42;100.00;101333.47;5048188;28;20053;-67
2022/08/26 03:38:12;;;;;;;9.23;2.38;;;;;;;20.45;100.00;101329.66;5049037;28;20041;-62
2022/08/26 03:40:42;;;;;;;7.80;2.45;;;;;;;20.47;100.00;101333.00;5047309;28;20562;-57
2022/08/26 03:43:13;;;;;;;8.20;2.40;;;;;;;20.49;100.00;101340.88;5049266;28;20053;-56
2022/08/26 03:45:41;;;;;;;9.20;2.53;;;;;;;20.53;100.00;101342.22;5048900;28;20053;-67
2022/08/26 03:48:13;;;;;;;10.18;2.28;;;;;;;20.60;100.00;101348.63;5052418;28;20040;-66
2022/08/26 03:50:42;;;;;;;6.55;2.28;;;;;;;20.58;100.00;101342.63;5052597;28;20048;-66
2022/08/26 03:53:10;;;;;;;8.13;2.20;;;;;;;20.55;100.00;101338.41;5052768;28;20588;-58
2022/08/26 03:55:41;;;;;;;11.25;2.63;;;;;;;20.58;100.00;101346.13;5052971;28;20053;-66
2022/08/26 03:58:10;;;;;;;13.55;2.58;;;;;;;20.67;100.00;101347.03;5055170;28;20400;-65
2022/08/26 04:00:39;;;;;;;9.23;2.50;;;;;;;20.63;100.00;101353.69;5052905;28;20044;-57
2022/08/26 04:03:07;;;;;;;5.65;2.05;;;;;;;20.60;100.00;101352.16;5053836;28;20045;-65
2022/08/26 04:05:37;;;;;;;8.40;2.08;;;;;;;20.73;100.00;101358.97;5055024;28;20055;-57
2022/08/26 04:08:05;;;;;;;5.18;1.77;;;;;;;20.69;100.00;101355.75;5054900;28;20041;-66
2022/08/26 04:10:34;;;;;;;9.02;2.47;;;;;;;20.69;100.00;101354.94;5054883;28;20575;-56
2022/08/26 04:13:02;;;;;;;8.35;2.10;;;;;;;20.71;100.00;101351.13;5052435;28;20052;-67
2022/08/26 04:15:30;;;;;;;6.85;2.05;;;;;;;20.74;100.00;101347.31;5052524;28;20139;-57
2022/08/26 04:18:02;;;;;;;8.82;2.25;;;;;;;20.80;100.00;101341.31;5052231;28;20091;-59
2022/08/26 04:20:30;;;;;;;8.80;2.20;;;;;;;20.65;100.00;101343.66;5052459;28;20550;-65
2022/08/26 04:22:59;;;;;;;8.20;2.20;;;;;;;20.61;100.00;101344.97;5052042;28;20045;-66
2022/08/26 04:25:27;;;;;;;8.98;2.22;;;;;;;20.63;100.00;101339.47;5048953;28;20055;-57
2022/08/26 04:27:55;;;;;;;9.40;2.35;;;;;;;20.64;100.00;101347.31;5051683;28;20091;-66
2022/08/26 04:30:24;;;;;;;5.82;2.17;;;;;;;20.58;100.00;101342.63;5052886;28;20083;-66
2022/08/26 04:32:52;;;;;;;6.65;2.10;;;;;;;20.61;100.00;101350.31;5054062;28;20489;-67
2022/08/26 04:35:22;;;;;;;8.02;1.75;;;;;;;20.59;100.00;101350.47;5051814;28;20087;-66
2022/08/26 04:37:54;;;;;;;9.23;2.50;;;;;;;20.66;100.00;101347.19;5051803;28;20126;-67
2022/08/26 04:40:22;;;;;;;8.05;2.03;;;;;;;20.64;100.00;101349.19;5054416;28;20072;-67
2022/08/26 04:42:52;;;;;;;8.65;2.35;;;;;;;20.69;100.00;101345.06;5052737;28;20577;-66
2022/08/26 04:45:21;;;;;;;8.63;2.17;;;;;;;20.71;100.00;101348.44;5051564;28;20041;-58
2022/08/26 04:47:55;;;;;;;9.32;1.95;;;;;;;20.61;100.00;101350.31;5049719;28;20041;-59
2022/08/26 04:50:25;;;;;;;7.53;1.75;;;;;;;20.63;100.00;101358.19;5051077;28;20526;-67
2022/08/26 04:52:55;;;;;;;8.63;2.28;;;;;;;20.58;100.00;101355.97;5049319;28;20053;-57
2022/08/26 04:55:23;;;;;;;9.10;2.13;;;;;;;20.62;100.00;101360.03;5049307;28;20049;-58
2022/08/26 04:58:08;;;;;;;;;;;;;;;20.57;100.00;101363.16;5049870;28;20084;-67
2022/08/26 05:00:38;;;;;;;6.70;1.65;;;;;;;20.56;100.00;101364.16;5051183;28;19920;-58
2022/08/26 05:03:07;;;;;;;7.97;1.98;;;;;;;20.64;100.00;101359.88;5052452;28;20066;-58
2022/08/26 05:05:41;;;;;;;9.38;2.13;;;;;;;20.59;100.00;101361.16;5054118;28;20411;-57
2022/08/26 05:08:10;;;;;;;5.82;1.95;;;;;;;20.63;100.00;101361.72;5051578;28;20079;-57
2022/08/26 05:10:40;;;;;;;8.27;1.92;;;;;;;20.66;100.00;101369.41;5049196;28;20087;-59
2022/08/26 05:13:11;;;;;;;7.47;2.10;;;;;;;20.71;100.00;101372.50;5053548;28;20064;-57
2022/08/26 05:15:43;;;;;;;9.05;1.95;;;;;;;20.66;100.00;101366.75;5053394;28;20053;-58
2022/08/26 05:18:13;;;;;;;9.50;2.03;;;;;;;20.66;100.00;101371.25;5053437;28;20126;-67
2022/08/26 05:20:46;;;;;;;8.35;1.70;;;;;;;20.67;100.00;101367.56;5051956;28;20052;-57
2022/08/26 05:23:14;;;;;;;5.53;1.60;;;;;;;20.66;100.00;101373.94;5050678;28;20381;-58
2022/08/26 05:25:45;;;;;;;9.10;1.83;;;;;;;20.65;100.00;101373.06;5048603;28;20036;-68
2022/08/26 05:28:16;;;;;;;7.10;1.85;;;;;;;20.67;100.00;101379.09;5051777;28;20048;-58
2022/08/26 05:30:44;;;;;;;7.68;1.67;;;;;;;20.69;100.00;101381.66;5053382;28;20053;-57
2022/08/26 05:33:13;;;;;;;7.03;1.55;;;;;;;20.67;100.00;101389.81;5053336;28;20051;-57
2022/08/26 05:35:43;;;;;;;7.18;1.65;;;;;;;20.67;100.00;101386.28;5050593;28;20121;-67
2022/08/26 05:38:15;;;;;;;8.20;1.60;;;;;;;20.68;100.00;101385.28;5049976;28;20464;-58
2022/08/26 05:40:45;;;;;;;5.60;1.50;;;;;;;20.73;100.00;101386.53;5048379;28;20084;-57
2022/08/26 05:43:13;;;;;;;5.47;1.63;;;;;;;20.68;100.00;101388.84;5050265;28;20057;-67
2022/08/26 05:45:45;;;;;;;6.25;1.50;;;;;;;20.68;100.00;101391.53;5050478;28;20126;-57
2022/08/26 05:48:15;;;;;;;5.20;1.53;;;;;;;20.75;100.00;101397.06;5050156;28;20059;-67
2022/08/26 05:50:46;;;;;;;7.30;1.85;;;;;;;20.80;100.00;101388.59;5050337;28;20044;-58
2022/08/26 05:53:17;;;;;;;8.02;1.75;;;;;;;20.85;100.00;101402.34;5051871;28;20053;-57
2022/08/26 05:55:49;;;;;;;7.95;1.67;;;;;;;20.85;100.00;101405.03;5048628;28;20075;-57
2022/08/26 05:58:19;;;;;;;10.05;1.80;;;;;;;20.81;100.00;101403.66;5050018;28;20420;-57
2022/08/26 06:00:57;;;;;;;5.82;1.38;;;;;;;20.89;100.00;101401.88;5050343;28;20083;-65
2022/08/26 06:03:26;;;;;;;8.48;1.50;;;;;;;20.93;100.00;101402.41;5049755;28;20072;-67
2022/08/26 06:05:56;;;;;;;8.88;1.50;;;;;;;20.94;100.00;101404.06;5049326;28;20055;-66
2022/08/26 06:08:24;;;;;;;6.05;1.73;;;;;;;20.94;100.00;101407.59;5048547;28;20127;-67
2022/08/26 06:10:54;;;;;;;10.23;2.05;;;;;;;20.96;100.00;101407.44;5048647;28;20075;-57
2022/08/26 06:13:24;;;;;;;6.68;1.90;;;;;;;21.08;100.00;101411.56;5050796;28;20041;-57
2022/08/26 06:15:53;;;;;;;7.30;1.60;;;;;;;21.06;100.00;101410.03;5051128;28;20047;-66
2022/08/26 06:18:23;;;;;;;8.95;2.08;;;;;;;21.15;100.00;101413.63;5050493;28;20041;-68
2022/08/26 06:20:53;;;;;;;7.18;2.00;;;;;;;21.19;100.00;101417.66;5049866;28;20048;-66
2022/08/26 06:26:15;;;;;;;7.10;1.27;;;;;;;21.16;100.00;101417.94;5049681;28;19925;-56
2022/08/26 06:28:44;;;;;;;7.32;1.58;;;;;;;21.21;100.00;101416.47;5049248;28;20052;-56
2022/08/26 06:31:13;;;;;;;8.43;1.38;;;;;;;21.25;100.00;101419.69;5050930;28;20103;-67
2022/08/26 06:33:41;;;;;;;5.88;1.45;;;;;;;21.27;100.00;101417.72;5049783;28;20060;-67
2022/08/26 06:36:14;;;;;;;10.00;1.90;;;;;;;21.34;100.00;101416.09;5050083;28;20067;-58
2022/08/26 06:38:47;;;;;;;8.82;1.73;;;;;;;21.41;100.00;101416.28;5052161;28;20056;-67
2022/08/26 06:41:17;;;;;;;6.15;1.35;;;;;;;21.50;100.00;101422.53;5051266;28;20048;-68
2022/08/26 06:43:49;;;;;;;8.05;1.48;;;;;;;21.53;100.00;101422.22;5049888;28;20041;-58
2022/08/26 06:46:20;;;;;;;6.63;1.63;;;;;;;21.60;100.00;101429.47;5049123;28;20565;-68
2022/08/26 06:48:49;;;;;;;6.10;1.58;;;;;;;21.69;100.00;101432.19;5051780;28;20049;-66
2022/08/26 06:51:19;;;;;;;6.45;1.50;;;;;;;21.71;100.00;101430.22;5052029;28;20492;-66
2022/08/26 06:53:54;;;;;;;5.28;1.27;;;;;;;21.75;100.00;101432.41;5052542;28;20052;-67
2022/08/26 06:56:24;;;;;;;10.77;1.88;;;;;;;21.82;100.00;101435.28;5051154;28;20056;-57
2022/08/26 06:58:53;;;;;;;5.07;1.30;;;;;;;21.85;100.00;101436.81;5052243;28;20041;-57
2022/08/26 07:01:24;;;;;;;6.00;1.45;;;;;;;21.87;100.00;101435.66;5052076;28;20073;-68
2022/08/26 07:03:55;;;;;;;6.95;1.35;;;;;;;21.90;99.87;101439.84;5051351;28;20047;-67
2022/08/26 07:06:24;;;;;;;7.00;1.60;;;;;;;21.89;99.16;101441.66;5049706;28;20060;-66
2022/08/26 07:09:02;;;;;;;8.65;1.48;;;;;;;21.83;99.20;101438.78;5047148;28;20758;-58
2022/08/26 07:11:30;;;;;;;5.72;1.45;;;;;;;21.88;98.88;101437.34;5050891;28;20053;-57
2022/08/26 07:13:59;;;;;;;6.95;1.50;;;;;;;21.90;98.51;101437.19;5051689;28;20377;-68
2022/08/26 07:16:28;;;;;;;7.03;1.52;;;;;;;21.94;97.92;101449.25;5051340;28;20056;-68
2022/08/26 07:18:57;;;;;;;7.78;1.40;;;;;;;21.94;98.15;101447.38;5048612;28;20106;-68
2022/08/26 07:21:28;;;;;;;5.82;1.30;;;;;;;22.06;98.92;101449.78;5053477;28;20087;-67
2022/08/26 07:23:59;;;;;;;5.72;1.30;;;;;;;22.12;97.14;101441.09;5055738;28;20080;-68
2022/08/26 07:26:30;;;;;;;4.60;1.20;;;;;;;22.15;97.45;101448.81;5053268;28;20106;-59
2022/08/26 07:29:00;;;;;;;5.25;1.50;;;;;;;22.14;96.48;101446.28;5053142;28;20396;-67
2022/08/26 07:31:31;;;;;;;5.70;1.20;;;;;;;22.12;95.62;101449.97;5053502;28;20404;-57
2022/08/26 07:34:09;;;;;;;6.40;1.40;;;;;;;22.14;96.45;101459.69;5052734;28;20049;-57
2022/08/26 07:36:37;;;;;;;5.35;1.15;;;;;;;22.10;95.54;101464.50;5052768;28;20040;-68
2022/08/26 07:39:07;;;;;;;5.53;1.30;;;;;;;22.10;95.33;101461.84;5051882;28;20049;-56
2022/08/26 07:41:35;;;;;;;5.97;1.42;;;;;;;22.17;95.08;101462.03;5055104;28;20051;-57
2022/08/26 07:44:05;;;;;;;6.80;1.42;;;;;;;22.11;95.20;101466.19;5053914;28;20459;-69
2022/08/26 07:46:35;;;;;;;7.20;1.30;;;;;;;22.17;95.07;101475.44;5053810;28;20534;-57
2022/08/26 07:49:03;;;;;;;4.28;1.33;;;;;;;22.27;94.38;101470.78;5051978;28;20079;-68
2022/08/26 07:51:32;;;;;;;4.38;1.33;;;;;;;22.36;93.73;101472.53;5054611;28;20048;-56
2022/08/26 07:54:00;;;;;;;5.35;1.40;;;;;;;22.36;93.61;101480.56;5050622;28;20100;-67
2022/08/26 07:56:29;;;;;;;4.22;1.15;;;;;;;22.47;93.33;101478.59;5050933;28;20049;-57
2022/08/26 07:58:58;;;;;;;5.40;1.27;;;;;;;22.66;92.15;101472.97;5054046;28;20053;-67
2022/08/26 08:01:28;;;;;;;6.95;1.67;;;;;;;22.59;91.63;101482.63;5052903;28;20049;-57
2022/08/26 08:03:57;;;;;;;5.30;1.13;;;;;;;22.63;91.66;101483.97;5051615;28;20099;-67
2022/08/26 08:06:27;;;;;;;4.15;1.20;;;;;;;22.62;90.89;101476.97;5054559;28;20072;-69
2022/08/26 08:08:56;;;;;;;5.82;1.23;;;;;;;22.63;90.67;101481.31;5049951;28;20099;-68
2022/08/26 08:11:26;;;;;;;6.93;1.80;;;;;;;22.68;91.30;101478.16;5051864;28;20086;-57
2022/08/26 08:13:55;;;;;;;6.80;1.27;;;;;;;22.74;90.67;101480.16;5051721;28;20124;-57
2022/08/26 08:16:24;;;;;;;7.22;1.30;;;;;;;22.88;90.25;101481.38;5050669;28;20053;-57
2022/08/26 08:18:53;;;;;;;6.05;1.17;;;;;;;23.03;89.08;101490.44;5052727;28;20513;-57
2022/08/26 08:21:23;;;;;;;6.95;1.42;;;;;;;23.08;87.79;101481.88;5054699;28;20040;-57
2022/08/26 08:23:52;;;;;;;7.75;1.40;;;;;;;23.21;87.97;101497.50;5054417;28;20102;-57
2022/08/26 08:26:20;;;;;;;7.15;1.35;;;;;;;23.39;87.32;101484.75;5051775;28;20048;-58
2022/08/26 08:28:48;;;;;;;5.63;1.42;;;;;;;23.56;86.29;101490.09;5051472;28;20567;-59
2022/08/26 08:31:23;;;;;;;4.25;1.27;;;;;;;23.55;85.79;101483.06;5052078;28;20084;-56
2022/08/26 08:34:11;;;;;;;6.35;1.70;;;;;;;23.68;85.20;101485.22;5051730;28;20053;-69
2022/08/26 08:36:39;;;;;;;8.18;2.13;;;;;;;23.77;85.10;101489.56;5051933;28;20124;-68
2022/08/26 08:39:08;;;;;;;3.20;1.45;;;;;;;23.86;84.73;101487.69;5050667;28;20055;-57
2022/08/26 08:41:48;;;;;;;5.47;1.60;;;;;;;23.82;84.68;101487.19;5051233;28;20056;-56
2022/08/26 08:44:20;;;;;;;5.72;1.70;;;;;;;23.87;84.69;101481.31;5051595;28;20083;-68
2022/08/26 08:46:55;;;;;;;5.15;1.13;;;;;;;23.79;84.40;101482.16;5052265;28;20041;-69
2022/08/26 08:49:25;;;;;;;4.22;1.30;;;;;;;23.80;84.01;101479.31;5051614;28;20068;-69
2022/08/26 08:52:00;;;;;;;4.75;1.27;;;;;;;23.74;84.98;101482.69;5051567;28;20041;-57
2022/08/26 08:54:32;;;;;;;8.27;1.50;;;;;;;23.79;84.81;101480.31;5050210;28;20048;-68
2022/08/26 08:57:07;;;;;;;6.30;1.73;;;;;;;23.71;85.69;101492.91;5051187;28;20071;-68
2022/08/26 08:59:41;;;;;;;4.53;1.40;;;;;;;23.75;85.08;101491.56;5051489;28;20048;-68
2022/08/26 09:02:21;;;;;;;4.63;1.27;;;;;;;23.72;84.51;101497.28;5051605;28;20073;-57
2022/08/26 09:05:07;;;;;;;7.57;1.77;;;;;;;23.78;84.38;101501.97;5051281;28;20049;-58
2022/08/26 09:07:46;;;;;;;6.88;1.30;;;;;;;23.69;85.08;101498.47;5051119;28;20369;-56
2022/08/26 09:10:39;;;;;;;6.75;1.58;;;;;;;23.72;84.25;101498.09;5050227;28;20102;-69
2022/08/26 09:13:12;;;;;;;5.63;1.33;;;;;;;23.70;84.87;101497.44;5050195;28;20056;-68
2022/08/26 09:15:55;;;;;;;7.40;1.42;;;;;;;23.70;85.02;101497.44;5051177;28;20060;-69
2022/08/26 09:18:42;;;;;;;8.05;1.90;;;;;;;23.78;84.97;101501.97;5051365;28;20049;-69
2022/08/26 09:21:15;;;;;;;6.10;1.40;;;;;;;23.89;84.90;101500.81;5051375;28;20044;-57
2022/08/26 09:23:45;;;;;;;8.73;1.50;;;;;;;23.98;83.99;101498.94;5051665;28;20053;-57
2022/08/26 09:26:19;;;;;;;5.83;1.63;;;;;;;23.84;84.43;101508.50;5052242;28;20099;-58
2022/08/26 09:28:55;;;;;;;6.20;1.27;;;;;;;23.86;84.28;101501.09;5051341;28;20118;-57
2022/08/26 09:31:26;;;;;;;6.32;1.55;;;;;;;23.77;84.57;101501.13;5053086;28;20067;-69
2022/08/26 09:34:12;;;;;;;6.00;1.75;;;;;;;23.72;85.13;101498.09;5053451;28;20063;-58
2022/08/26 09:36:47;;;;;;;7.03;1.65;;;;;;;23.54;85.70;101495.63;5053321;28;20044;-56
2022/08/26 09:39:28;;;;;;;8.63;1.98;;;;;;;23.54;86.58;101498.31;5050516;28;20068;-56
2022/08/26 09:42:07;;;;;;;6.63;1.48;;;;;;;23.53;86.71;101493.13;5050424;28;20045;-56
2022/08/26 09:44:53;;;;;;;6.60;1.40;;;;;;;23.40;87.11;101496.34;5052149;28;20076;-69
2022/08/26 09:47:28;;;;;;;6.38;1.67;;;;;;;23.46;86.26;101496.50;5053121;28;20045;-56
2022/08/26 09:50:03;;;;;;;8.43;1.70;;;;;;;23.59;86.34;101500.50;5052869;28;20488;-68
2022/08/26 09:52:37;;;;;;;6.45;1.52;;;;;;;23.59;85.38;101505.88;5053065;28;20076;-70
2022/08/26 09:55:13;;;;;;;7.55;1.48;;;;;;;23.56;85.84;101508.88;5052885;28;20049;-69
2022/08/26 09:57:50;;;;;;;10.43;1.73;;;;;;;23.35;86.65;101498.69;5050870;28;20098;-57
2022/08/26 10:00:31;;;;;;;6.05;1.63;;;;;;;23.42;87.04;101503.22;5049718;28;20143;-69
2022/08/26 10:03:02;;;;;;;6.40;1.65;;;;;;;23.43;86.96;101507.53;5050652;28;20044;-57
2022/08/26 10:05:46;;;;;;;7.88;1.85;;;;;;;23.46;87.45;101501.00;5053053;28;20073;-57
2022/08/26 10:08:24;;;;;;;5.88;1.20;;;;;;;23.62;86.46;101509.03;5052910;28;20053;-58
2022/08/26 10:10:55;;;;;;;5.82;1.48;;;;;;;23.77;84.81;101490.38;5049365;28;20556;-69
2022/08/26 10:13:30;;;;;;;5.82;1.45;;;;;;;23.80;84.03;101497.25;5050740;28;20060;-57
2022/08/26 10:16:05;;;;;;;5.30;1.40;;;;;;;23.77;84.68;101498.44;5049785;28;20048;-58
2022/08/26 10:18:42;;;;;;;6.55;1.35;;;;;;;23.80;83.71;101499.94;5052000;28;20049;-57
2022/08/26 10:21:13;;;;;;;;;;;;;;;23.79;84.56;101485.69;5053218;28;20095;-57
2022/08/26 10:23:49;;;;;;;8.43;1.70;;;;;;;24.00;84.44;101488.88;5048413;28;20496;-69
2022/08/26 10:26:25;;;;;;;7.75;1.70;;;;;;;24.05;83.25;101494.53;5049813;28;20099;-57
2022/08/26 10:29:04;;;;;;;9.00;1.88;;;;;;;24.06;83.44;101497.03;5050795;28;20057;-69
2022/08/26 10:31:38;;;;;;;7.28;1.50;;;;;;;24.06;83.30;101494.34;5052059;28;20037;-70
2022/08/26 10:34:08;;;;;;;9.25;1.50;;;;;;;23.83;82.94;101499.59;5049974;28;20045;-57
2022/08/26 10:36:51;;;;;;;7.43;1.60;;;;;;;23.71;84.25;101493.78;5049795;28;20055;-68
2022/08/26 10:39:47;;;;;;;7.47;1.73;;;;;;;23.82;83.79;101497.09;5048483;28;20496;-68
2022/08/26 10:42:26;;;;;;;6.35;1.50;;;;;;;23.79;84.16;101499.13;5050000;28;20112;-57
2022/08/26 10:45:02;;;;;;;8.98;1.88;;;;;;;23.65;85.41;101497.13;5049790;28;20140;-57
2022/08/26 10:47:37;;;;;;;11.13;1.50;;;;;;;23.65;84.83;101497.13;5050399;28;20106;-56
2022/08/26 10:50:05;;;;;;;6.38;1.40;;;;;;;23.59;84.53;101501.34;5049393;28;20523;-69
2022/08/26 10:52:52;;;;;;;6.60;1.67;;;;;;;23.51;84.99;101506.72;5049948;28;20049;-57
2022/08/26 10:55:28;;;;;;;7.97;1.40;;;;;;;23.48;84.64;101503.53;5048766;28;20103;-57
2022/08/26 10:58:13;;;;;;;4.70;1.30;;;;;;;23.40;83.73;101507.88;5050943;28;20485;-58
2022/08/26 11:03:57;;;;;;;6.18;1.27;;;;;;;23.45;83.22;101512.75;5050272;28;20412;-59
2022/08/26 11:06:28;;;;;;;7.30;1.65;;;;;;;23.52;83.18;101512.91;5052101;28;20045;-68
2022/08/26 11:08:59;;;;;;;7.18;1.30;;;;;;;23.48;82.82;101508.88;5048961;28;20052;-57
2022/08/26 11:11:48;;;;;;;6.90;1.67;;;;;;;23.53;82.70;101518.13;5048765;28;20045;-69
2022/08/26 11:14:34;;;;;;;6.28;1.25;;;;;;;23.58;82.34;101520.28;5051045;28;20118;-57
2022/08/26 11:17:55;;;;;;;5.72;1.80;;;;;;;23.56;82.00;101516.94;5049841;28;20053;-65
2022/08/26 11:20:35;;;;;;;4.93;1.10;;;;;;;23.65;81.71;101515.09;5049122;28;20045;-69
2022/08/26 11:23:37;;;;;;;5.22;1.40;;;;;;;23.49;82.91;101513.25;5049184;28;20033;-71
2022/08/26 11:26:16;;;;;;;7.97;1.48;;;;;;;23.54;83.80;101516.28;5051002;28;20049;-69
2022/08/26 11:29:05;;;;;;;4.82;1.05;;;;;;;23.33;91.01;101512.25;5049586;28;20044;-69
2022/08/26 11:31:54;;;;;;;8.82;1.70;;;;;;;23.19;91.70;101512.91;5048656;28;20388;-57
2022/08/26 11:34:51;;;;;;;5.57;1.30;;;;;;;23.06;93.19;101510.72;5049436;28;20492;-55
2022/08/26 11:37:22;;;;;;;5.70;1.38;;;;;;;22.86;94.71;101515.53;5049028;28;20071;-67
2022/08/26 11:39:54;;;;;;;9.98;1.55;;;;;;;22.73;96.27;101513.34;5049571;28;20044;-55
2022/08/26 11:42:34;;;;;;;6.38;1.63;;;;;;;22.84;98.87;101513.03;5048953;28;20100;-54
2022/08/26 11:45:13;;;;;;;6.78;1.33;;;;;;;22.64;99.85;101517.84;5048941;28;20103;-52
2022/08/26 11:47:41;;;;;;;5.28;1.48;;;;;;;22.43;100.00;101504.88;5049165;28;20529;-65